Flag for French Polynesia

Past Weather in 17°30'14.7"S, 149°49'15.2"W, French Polynesia — Yesterday and Last 2 Weeks

Currently: 79 °F. Passing clouds. (Weather station: Tahiti-Faaa, French Polynesia). See more current weather

Past Weather in 17°30'14.7"S, 149°49'15.2"W — Graph

°F

17°30'14.7"S, 149°49'15.2"W Temperature Yesterday

Maximum temperature yesterday: 86 °F (at 10:30 am)
Minimum temperature yesterday: 79 °F (at 12:00 am)
Average temperature yesterday: 82 °F

High & Low Weather Summary for the Past Weeks

 TemperatureHumidityPressure
High88 °F (May 10, 12:00 pm)94% (May 10, 11:00 pm)30.04 "Hg (May 10, 11:00 pm)
Low73 °F (May 17, 12:30 am)55% (May 17, 1:30 pm)29.83 "Hg (May 10, 3:00 pm)
Average80 °F74%29.93 "Hg
* Reported May 10 2:00 am — May 25 2:30 am, 17°30'14.7"S, 149°49'15.2"W. Weather by CustomWeather, © 2024

Note: Actual official high and low records may vary slightly from our data, if they occured in-between our weather recording intervals... More about our weather records

17°30'14.7"S, 149°49'15.2"W Weather History for the Previous 24 Hours

Scroll right to see more
 ConditionsComfort  
Time TempWeatherWind HumidityBarometerVisibility
2:30 am
Sat, May 25
79 °FPassing clouds.3 mph84%29.98 "HgN/A
2:00 am79 °FPassing clouds.3 mph89%29.98 "HgN/A
1:30 am79 °FPassing clouds.3 mph84%29.98 "HgN/A
1:00 am79 °FPassing clouds.3 mph84%29.98 "HgN/A
12:30 am81 °FClear.2 mph79%29.98 "Hg10 mi
12:00 am81 °FPartly cloudy.5 mph79%30.01 "HgN/A
11:30 pm
Fri, May 24
81 °FPassing clouds.3 mph79%30.01 "HgN/A
11:00 pm81 °FPassing clouds.2 mph79%30.01 "HgN/A
10:30 pm81 °FPartly cloudy.3 mph84%30.01 "HgN/A
10:00 pm81 °FPassing clouds.1 mph84%30.01 "HgN/A
9:30 pm81 °FPassing clouds.2 mph79%30.01 "HgN/A
9:00 pm81 °FPassing clouds.3 mph79%30.01 "HgN/A
8:30 pm81 °FPassing clouds.3 mph84%29.98 "HgN/A
8:00 pm81 °FPassing clouds.7 mph84%29.98 "HgN/A
7:30 pm82 °FPartly cloudy.8 mph79%29.98 "HgN/A
7:00 pm82 °FPartly cloudy.3 mph79%29.95 "HgN/A
6:30 pm82 °FPassing clouds.5 mph79%29.95 "HgN/A
6:00 pm82 °FPassing clouds.7 mph84%29.95 "HgN/A
5:30 pm82 °FScattered clouds.6 mph79%29.92 "HgN/A
5:00 pm84 °FScattered clouds.5 mph74%29.92 "HgN/A
4:30 pm86 °FScattered showers. Partly sunny.5 mph75%29.92 "HgN/A
4:00 pm86 °FScattered clouds.6 mph70%29.89 "HgN/A
3:30 pm86 °FPartly sunny.5 mph75%29.89 "HgN/A
3:00 pm84 °FPartly sunny.7 mph74%29.89 "HgN/A
2:30 pm84 °FPartly sunny.6 mph79%29.89 "HgN/A
2:00 pm84 °FScattered showers. Partly sunny.5 mph74%29.89 "HgN/A
1:30 pm84 °FPartly sunny.5 mph74%29.92 "HgN/A
1:00 pm86 °FPartly sunny.7 mph75%29.92 "HgN/A
12:30 pm84 °FPartly sunny.5 mph79%29.92 "HgN/A
12:00 pm84 °FPartly sunny.5 mph74%29.95 "HgN/A
11:30 am84 °FPartly sunny.7 mph74%29.95 "HgN/A
11:00 am84 °FPartly sunny.3 mph74%29.98 "HgN/A
10:30 am86 °FScattered clouds.5 mph75%29.98 "HgN/A
10:00 am84 °FPassing clouds.5 mph79%29.98 "HgN/A
9:30 am84 °FPassing clouds.3 mph79%29.98 "HgN/A
9:00 am84 °FPassing clouds.6 mph74%29.98 "HgN/A
8:30 am84 °FScattered clouds.1 mph74%29.98 "HgN/A
8:00 am84 °FPartly sunny.3 mph70%29.98 "HgN/A
7:34 am81 °FScattered showers. Partly sunny.5 mph79%29.95 "HgN/A
7:00 am79 °FScattered showers. Partly sunny.2 mph84%29.95 "HgN/A
6:30 am79 °FScattered showers. Passing clouds.2 mph84%29.95 "HgN/A
6:00 am79 °FScattered showers. Passing clouds.1 mph84%29.92 "HgN/A
5:30 am79 °FPassing clouds.3 mph84%29.92 "HgN/A
5:00 am79 °FPassing clouds.5 mph84%29.92 "HgN/A
4:30 am79 °FPassing clouds.2 mph84%29.92 "HgN/A
4:00 am79 °FPassing clouds.3 mph84%29.92 "HgN/A
Weather by CustomWeather, © 2024

See weather overview